Time;durP1;ratioP1;P1;durP2;ratioP2;P2;SDS_P1;SDS_P2;PMS_P1;PMS_P2;Temp;Humidity;BMP_temperature;BMP_pressure;BME280_temperature;BME280_humidity;BME280_pressure;Samples;Min_cycle;Max_cycle;Signal;HPM_P1;HPM_P2
2023/06/03 00:02:10;;;;;;;7.00;6.25;;;18.60;47.10;;;;;;5018348;28;20220;-90
2023/06/03 00:04:42;;;;;;;7.32;5.85;;;18.70;46.60;;;;;;5023480;28;20191;-91
2023/06/03 00:07:08;;;;;;;7.35;6.65;;;18.70;46.70;;;;;;5037349;28;20255;-92
2023/06/03 00:09:34;;;;;;;7.32;6.63;;;18.70;47.70;;;;;;5036382;28;20185;-91
2023/06/03 00:11:59;;;;;;;10.02;6.75;;;18.60;47.00;;;;;;5037623;28;20231;-90
2023/06/03 00:14:25;;;;;;;11.65;6.70;;;18.60;47.30;;;;;;5036622;28;20185;-91
2023/06/03 00:16:52;;;;;;;7.18;6.40;;;18.50;47.20;;;;;;5037630;28;20551;-91
2023/06/03 00:19:18;;;;;;;7.22;6.25;;;18.50;47.40;;;;;;5038285;28;20591;-91
2023/06/03 00:21:49;;;;;;;8.55;6.63;;;18.40;47.60;;;;;;5038734;28;20185;-90
2023/06/03 00:24:22;;;;;;;9.27;6.13;;;18.40;47.70;;;;;;5039541;28;20253;-91
2023/06/03 00:26:49;;;;;;;9.15;6.22;;;18.40;47.80;;;;;;5039539;28;20208;-90
2023/06/03 00:29:15;;;;;;;10.65;6.32;;;18.40;47.70;;;;;;5039262;28;20262;-92
2023/06/03 00:31:40;;;;;;;6.63;6.00;;;18.40;47.80;;;;;;5039320;28;20208;-89
2023/06/03 00:34:07;;;;;;;7.05;6.40;;;18.40;48.10;;;;;;5022683;28;20260;-89
2023/06/03 00:36:32;;;;;;;8.77;6.32;;;18.40;47.80;;;;;;5022954;28;20706;-90
2023/06/03 00:38:58;;;;;;;8.10;6.10;;;18.30;48.30;;;;;;5023500;28;20196;-90
2023/06/03 00:41:25;;;;;;;6.60;5.72;;;18.20;48.20;;;;;;5038819;28;20467;-92
2023/06/03 00:43:50;;;;;;;7.50;6.40;;;18.20;48.60;;;;;;5039824;28;20184;-91
2023/06/03 00:46:19;;;;;;;8.20;6.25;;;18.00;49.30;;;;;;5039026;28;20332;-90
2023/06/03 00:48:44;;;;;;;7.18;5.70;;;18.00;49.40;;;;;;5040802;28;20188;-90
2023/06/03 00:51:10;;;;;;;9.85;6.68;;;17.90;49.40;;;;;;5039558;28;20176;-91
2023/06/03 00:53:37;;;;;;;8.70;6.25;;;18.00;49.70;;;;;;5038658;28;20190;-91
2023/06/03 00:56:03;;;;;;;8.32;5.95;;;17.90;49.60;;;;;;5038665;28;20223;-89
2023/06/03 00:58:29;;;;;;;7.57;6.00;;;18.10;49.30;;;;;;5044087;28;20181;-91
2023/06/03 01:00:55;;;;;;;8.43;6.40;;;18.00;49.10;;;;;;5025963;28;20483;-89
2023/06/03 01:03:21;;;;;;;8.10;5.93;;;18.00;49.20;;;;;;5042587;28;20219;-92
2023/06/03 01:06:14;;;;;;;11.83;6.83;;;17.90;49.70;;;;;;5040731;28;20221;-92
2023/06/03 01:09:26;;;;;;;8.60;5.72;;;17.70;50.20;;;;;;5032306;28;20694;-90
2023/06/03 01:12:26;;;;;;;7.35;6.07;;;17.70;50.10;;;;;;5037000;28;20208;-90
2023/06/03 01:14:58;;;;;;;7.50;6.10;;;17.60;50.20;;;;;;5041691;28;20238;-91
2023/06/03 01:17:27;;;;;;;6.30;5.70;;;17.50;51.60;;;;;;5042855;28;20228;-89
2023/06/03 01:19:56;;;;;;;9.23;5.87;;;17.40;51.10;;;;;;5043629;28;20656;-91
2023/06/03 01:22:26;;;;;;;6.47;5.83;;;17.50;51.20;;;;;;5044591;28;20336;-88
2023/06/03 01:25:06;;;;;;;8.37;5.77;;;17.40;51.30;;;;;;5047601;28;20180;-90
2023/06/03 01:27:32;;;;;;;7.70;6.00;;;17.40;51.60;;;;;;5044992;28;20809;-87
2023/06/03 01:29:58;;;;;;;11.00;6.37;;;17.40;51.60;;;;;;5044109;28;20664;-90
2023/06/03 01:32:24;;;;;;;7.87;5.40;;;17.30;51.70;;;;;;5042141;28;20178;-91
2023/06/03 01:34:51;;;;;;;7.33;5.73;;;17.30;52.00;;;;;;5042199;28;20185;-89
2023/06/03 01:37:17;;;;;;;7.82;5.55;;;17.40;51.70;;;;;;5042119;28;20205;-89
2023/06/03 01:39:43;;;;;;;6.78;5.50;;;17.50;51.40;;;;;;5041249;28;20190;-91
2023/06/03 01:42:10;;;;;;;7.67;5.87;;;17.60;51.10;;;;;;5040331;28;20216;-91
2023/06/03 01:44:37;;;;;;;8.10;5.57;;;17.40;51.60;;;;;;5040905;28;20376;-90
2023/06/03 01:47:03;;;;;;;8.33;5.93;;;17.30;52.10;;;;;;5040926;28;20211;-90
2023/06/03 01:49:31;;;;;;;6.87;5.53;;;17.20;52.20;;;;;;5040391;28;20172;-89
2023/06/03 01:51:58;;;;;;;8.32;5.90;;;17.20;52.70;;;;;;5040224;28;20187;-91
2023/06/03 01:54:25;;;;;;;6.95;5.38;;;17.20;52.80;;;;;;5040959;28;20665;-87
2023/06/03 01:56:52;;;;;;;8.53;5.60;;;17.10;52.80;;;;;;5042607;28;20296;-92
2023/06/03 01:59:23;;;;;;;7.63;5.60;;;17.00;53.30;;;;;;5041185;28;20269;-90
2023/06/03 02:01:53;;;;;;;7.37;5.67;;;17.00;53.60;;;;;;5040055;28;20532;-93
2023/06/03 02:04:19;;;;;;;8.40;5.90;;;16.80;53.90;;;;;;5039704;28;20180;-92
2023/06/03 02:06:52;;;;;;;8.00;5.60;;;16.80;54.10;;;;;;5040554;28;20217;-90
2023/06/03 02:09:24;;;;;;;8.37;5.13;;;16.80;54.10;;;;;;5004894;28;20216;-89
2023/06/03 02:11:51;;;;;;;6.53;5.73;;;16.70;54.90;;;;;;5021470;28;20171;-89
2023/06/03 02:14:17;;;;;;;10.90;5.60;;;16.60;55.20;;;;;;5021810;28;20205;-88
2023/06/03 02:16:43;;;;;;;6.17;5.57;;;16.60;55.30;;;;;;5021291;28;20209;-89
2023/06/03 02:19:26;;;;;;;6.03;5.43;;;16.60;55.20;;;;;;5020921;28;20597;-88
2023/06/03 02:21:54;;;;;;;7.10;5.40;;;16.50;55.30;;;;;;5017960;28;20367;-91
2023/06/03 02:24:22;;;;;;;15.83;6.17;;;16.70;55.00;;;;;;5041385;28;20185;-93
2023/06/03 02:26:52;;;;;;;32.17;7.60;;;16.80;54.70;;;;;;5041570;28;20674;-92
2023/06/03 02:29:27;;;;;;;10.07;5.93;;;16.80;54.40;;;;;;5040940;28;20561;-91
2023/06/03 02:31:54;;;;;;;9.73;6.00;;;16.90;54.20;;;;;;5040379;28;20179;-89
2023/06/03 02:34:21;;;;;;;10.60;6.00;;;16.70;54.70;;;;;;5040482;28;20173;-92
2023/06/03 02:36:47;;;;;;;10.33;6.40;;;16.50;55.50;;;;;;5040299;28;20204;-91
2023/06/03 02:39:14;;;;;;;6.33;5.30;;;16.50;55.60;;;;;;5040125;28;20219;-90
2023/06/03 02:41:41;;;;;;;7.33;5.60;;;16.50;55.80;;;;;;5040780;28;20686;-89
2023/06/03 02:44:07;;;;;;;6.03;5.43;;;16.40;56.20;;;;;;5039411;28;20671;-90
2023/06/03 02:46:33;;;;;;;6.70;5.50;;;16.40;57.00;;;;;;5040026;28;20302;-90
2023/06/03 02:49:03;;;;;;;25.90;7.43;;;16.50;56.00;;;;;;5021944;28;20703;-90
2023/06/03 02:51:29;;;;;;;5.73;5.23;;;16.40;56.20;;;;;;5021957;28;20179;-89
2023/06/03 02:53:54;;;;;;;10.20;5.87;;;16.40;56.50;;;;;;5023315;28;20275;-91
2023/06/03 02:56:22;;;;;;;6.67;5.47;;;16.30;56.40;;;;;;5040326;28;20199;-93
2023/06/03 02:58:48;;;;;;;7.60;5.30;;;16.10;57.50;;;;;;5022688;28;20207;-90
2023/06/03 03:01:14;;;;;;;7.40;5.00;;;16.10;57.90;;;;;;5021491;28;20183;-89
2023/06/03 03:03:40;;;;;;;6.10;5.23;;;16.10;57.90;;;;;;5040128;28;20356;-91
2023/06/03 03:06:06;;;;;;;8.93;5.63;;;16.10;58.00;;;;;;5039071;28;20214;-90
2023/06/03 03:08:35;;;;;;;5.77;4.93;;;16.10;57.90;;;;;;5039698;28;20272;-93
2023/06/03 03:11:01;;;;;;;10.27;5.37;;;16.10;57.70;;;;;;5040031;28;20177;-89
2023/06/03 03:13:26;;;;;;;8.73;5.30;;;16.10;58.10;;;;;;5040656;28;20181;-90
2023/06/03 03:15:52;;;;;;;9.10;5.17;;;16.00;58.50;;;;;;5040940;28;20198;-91
2023/06/03 03:18:18;;;;;;;8.17;5.33;;;15.80;58.60;;;;;;5040468;28;20299;-90
2023/06/03 03:20:44;;;;;;;5.93;5.30;;;15.80;59.00;;;;;;5038572;28;20192;-90
2023/06/03 03:23:12;;;;;;;6.40;5.03;;;15.70;59.60;;;;;;5021598;28;20272;-89
2023/06/03 03:25:40;;;;;;;6.13;4.93;;;15.70;59.50;;;;;;5038569;28;20270;-91
2023/06/03 03:28:06;;;;;;;10.07;5.37;;;15.80;59.40;;;;;;5019185;28;20189;-88
2023/06/03 03:30:32;;;;;;;6.57;5.13;;;15.90;59.30;;;;;;5019086;28;20287;-89
2023/06/03 03:32:59;;;;;;;6.80;5.00;;;15.80;59.20;;;;;;5017900;28;20675;-89
2023/06/03 03:35:25;;;;;;;7.97;5.40;;;15.80;59.20;;;;;;5019225;28;20281;-89
2023/06/03 03:38:02;;;;;;;6.90;4.87;;;15.90;59.10;;;;;;5001776;28;20185;-90
2023/06/03 03:40:30;;;;;;;9.67;5.60;;;15.90;59.10;;;;;;5034558;28;20245;-96
2023/06/03 03:42:56;;;;;;;7.90;5.50;;;15.90;59.30;;;;;;5040583;28;20185;-95
2023/06/03 03:45:25;;;;;;;6.73;5.33;;;15.80;59.40;;;;;;5054737;28;20187;-93
2023/06/03 03:47:52;;;;;;;10.10;5.80;;;15.90;59.50;;;;;;5055460;28;20233;-94
2023/06/03 03:50:44;;;;;;;7.63;4.90;;;15.70;60.00;;;;;;5056380;28;20191;-92
2023/06/03 03:53:14;;;;;;;7.23;5.50;;;15.80;59.90;;;;;;5035957;28;20183;-88
2023/06/03 03:55:48;;;;;;;8.77;5.33;;;15.80;60.00;;;;;;5022470;28;20169;-90
2023/06/03 03:58:35;;;;;;;7.93;5.07;;;15.60;60.50;;;;;;5020748;28;20240;-91
2023/06/03 04:01:09;;;;;;;6.47;5.07;;;15.60;60.70;;;;;;5034688;28;20255;-89
2023/06/03 04:03:40;;;;;;;5.87;5.27;;;15.60;60.70;;;;;;5038474;28;20191;-90
2023/06/03 04:06:29;;;;;;;9.23;5.40;;;15.70;60.80;;;;;;5039022;28;20220;-90
2023/06/03 04:08:54;;;;;;;8.93;6.20;;;15.60;61.20;;;;;;5038900;28;20176;-89
2023/06/03 04:11:26;;;;;;;6.67;4.87;;;15.60;61.00;;;;;;5041636;28;20180;-92
2023/06/03 04:13:53;;;;;;;9.07;5.43;;;15.40;61.70;;;;;;5040583;28;20184;-90
2023/06/03 04:16:34;;;;;;;7.83;5.10;;;15.40;62.00;;;;;;5040076;28;20197;-90
2023/06/03 04:19:03;;;;;;;7.43;5.40;;;15.40;61.90;;;;;;5040004;28;20177;-89
2023/06/03 04:21:30;;;;;;;7.23;4.97;;;15.40;61.80;;;;;;5040127;28;20177;-90
2023/06/03 04:23:55;;;;;;;8.47;5.33;;;15.50;61.60;;;;;;5022998;28;20188;-88
2023/06/03 04:26:21;;;;;;;8.17;5.53;;;15.60;61.60;;;;;;5040243;28;20293;-90
2023/06/03 04:28:47;;;;;;;7.30;5.10;;;15.60;61.80;;;;;;5043673;28;20180;-89
2023/06/03 04:31:13;;;;;;;6.07;4.70;;;15.60;61.90;;;;;;5021310;28;20189;-88
2023/06/03 04:33:41;;;;;;;5.23;4.73;;;15.70;61.40;;;;;;5039901;28;20179;-89
2023/06/03 04:36:07;;;;;;;6.90;5.30;;;15.80;60.90;;;;;;5038934;28;20610;-87
2023/06/03 04:38:33;;;;;;;7.40;5.50;;;15.90;60.70;;;;;;5039262;28;20190;-90
2023/06/03 04:41:01;;;;;;;8.30;5.23;;;16.00;60.50;;;;;;5038212;28;20188;-90
2023/06/03 04:43:27;;;;;;;6.10;5.20;;;15.80;60.70;;;;;;5038687;28;20174;-93
2023/06/03 04:45:54;;;;;;;8.87;5.50;;;15.80;61.20;;;;;;5038515;28;20208;-89
2023/06/03 04:48:22;;;;;;;6.43;5.13;;;15.70;61.50;;;;;;5039029;28;20225;-89
2023/06/03 04:50:49;;;;;;;7.40;5.00;;;15.60;62.00;;;;;;5038169;28;20182;-89
2023/06/03 04:53:14;;;;;;;6.37;5.23;;;15.70;62.20;;;;;;5039612;28;20182;-88
2023/06/03 04:55:44;;;;;;;10.60;6.00;;;15.60;62.60;;;;;;5039097;28;20616;-89
2023/06/03 04:58:12;;;;;;;6.53;5.37;;;15.80;62.20;;;;;;5039636;28;20501;-89
2023/06/03 05:00:40;;;;;;;6.23;4.90;;;15.80;61.40;;;;;;5038733;28;20178;-89
2023/06/03 05:03:08;;;;;;;7.73;4.83;;;15.90;61.20;;;;;;5039335;28;20185;-86
2023/06/03 05:05:35;;;;;;;8.93;5.13;;;16.10;60.90;;;;;;5039358;28;20198;-80
2023/06/03 05:08:01;;;;;;;6.87;5.57;;;15.90;61.00;;;;;;5039012;28;20165;-87
2023/06/03 05:10:27;;;;;;;6.63;5.47;;;15.80;61.40;;;;;;5019052;28;20180;-88
2023/06/03 05:12:53;;;;;;;6.90;5.33;;;15.70;62.50;;;;;;5037997;28;20231;-89
2023/06/03 05:15:19;;;;;;;7.33;5.00;;;15.70;62.50;;;;;;5021387;28;20176;-89
2023/06/03 05:17:45;;;;;;;6.03;5.10;;;15.60;63.10;;;;;;5037553;28;20334;-88
2023/06/03 05:20:11;;;;;;;10.33;5.67;;;15.60;63.10;;;;;;5036951;28;20705;-89
2023/06/03 05:22:37;;;;;;;6.37;5.10;;;15.50;63.20;;;;;;5019025;28;20277;-90
2023/06/03 05:25:04;;;;;;;6.87;5.50;;;15.50;63.70;;;;;;5037737;28;20212;-91
2023/06/03 05:27:29;;;;;;;9.20;5.60;;;15.50;63.70;;;;;;5019158;28;20613;-89
2023/06/03 05:29:55;;;;;;;8.00;5.50;;;15.50;63.80;;;;;;5035504;28;20204;-87
2023/06/03 05:32:21;;;;;;;7.00;4.93;;;15.50;64.00;;;;;;5035746;28;20175;-90
2023/06/03 05:34:47;;;;;;;5.90;5.07;;;15.50;64.50;;;;;;5036493;28;20712;-88
2023/06/03 05:37:12;;;;;;;10.10;5.67;;;15.50;64.60;;;;;;5036482;28;20212;-88
2023/06/03 05:39:38;;;;;;;6.90;5.57;;;15.50;64.00;;;;;;5036307;28;20311;-88
2023/06/03 05:42:04;;;;;;;6.00;5.13;;;15.60;64.20;;;;;;5037771;28;20177;-86
2023/06/03 05:44:30;;;;;;;8.17;5.40;;;15.70;63.80;;;;;;5040873;28;20226;-86
2023/06/03 05:46:55;;;;;;;6.73;4.73;;;15.60;63.60;;;;;;5041224;28;20236;-89
2023/06/03 05:49:21;;;;;;;7.87;5.60;;;15.80;63.60;;;;;;5039767;28;20174;-92
2023/06/03 05:51:47;;;;;;;7.00;5.83;;;15.80;63.30;;;;;;5040158;28;20173;-87
2023/06/03 05:54:13;;;;;;;6.10;5.50;;;15.90;62.80;;;;;;5039863;28;20188;-87
2023/06/03 05:56:39;;;;;;;7.80;4.97;;;15.80;63.20;;;;;;5040335;28;20189;-88
2023/06/03 05:59:05;;;;;;;6.17;5.33;;;15.90;62.60;;;;;;5040916;28;20543;-87
2023/06/03 06:01:32;;;;;;;7.83;6.00;;;15.90;62.30;;;;;;5041872;28;20636;-88
2023/06/03 06:03:58;;;;;;;9.10;5.33;;;16.00;62.30;;;;;;5023758;28;20192;-91
2023/06/03 06:06:24;;;;;;;8.33;5.33;;;16.10;62.40;;;;;;5042249;28;20580;-88
2023/06/03 06:08:49;;;;;;;9.70;6.00;;;16.20;62.20;;;;;;5022815;28;20199;-89
2023/06/03 06:11:16;;;;;;;10.27;5.73;;;16.20;61.10;;;;;;5040828;28;20168;-90
2023/06/03 06:13:41;;;;;;;6.63;5.40;;;16.30;60.70;;;;;;5042399;28;20203;-90
2023/06/03 06:16:07;;;;;;;7.97;5.97;;;16.50;60.50;;;;;;5041966;28;20204;-89
2023/06/03 06:18:33;;;;;;;8.70;5.40;;;16.70;59.80;;;;;;5041623;28;20177;-88
2023/06/03 06:20:59;;;;;;;7.27;6.03;;;16.80;59.90;;;;;;5023525;28;20186;-88
2023/06/03 06:23:25;;;;;;;9.83;5.77;;;16.70;58.90;;;;;;5040388;28;20263;-89
2023/06/03 06:25:52;;;;;;;9.00;5.97;;;16.80;59.20;;;;;;5040603;28;20204;-92
2023/06/03 06:28:20;;;;;;;7.17;5.53;;;16.80;59.30;;;;;;5040279;28;20196;-88
2023/06/03 06:30:46;;;;;;;7.03;5.30;;;16.90;59.20;;;;;;5040949;28;20185;-90
2023/06/03 06:33:15;;;;;;;8.27;5.87;;;16.90;58.80;;;;;;5041446;28;20212;-91
2023/06/03 06:35:41;;;;;;;8.50;6.10;;;16.90;58.20;;;;;;5040928;28;20179;-90
2023/06/03 06:38:07;;;;;;;9.13;6.37;;;17.00;58.30;;;;;;5040968;28;20183;-90
2023/06/03 06:40:35;;;;;;;9.57;6.00;;;16.90;58.10;;;;;;5041755;28;20200;-88
2023/06/03 06:43:05;;;;;;;7.97;6.13;;;16.90;58.40;;;;;;5024993;28;20694;-89
2023/06/03 06:45:34;;;;;;;10.43;5.70;;;16.90;58.60;;;;;;5024656;28;20186;-88
2023/06/03 06:48:13;;;;;;;7.10;5.80;;;17.00;58.40;;;;;;5024477;28;20208;-90
2023/06/03 06:50:45;;;;;;;10.87;6.10;;;17.20;57.70;;;;;;5025742;28;20196;-90
2023/06/03 06:53:11;;;;;;;8.73;5.47;;;17.20;58.00;;;;;;5042689;28;20263;-89
2023/06/03 06:55:59;;;;;;;9.20;5.43;;;17.20;57.70;;;;;;5023945;28;20191;-88
2023/06/03 06:58:26;;;;;;;11.27;5.80;;;17.50;57.80;;;;;;5023057;28;20188;-89
2023/06/03 07:00:52;;;;;;;6.73;6.10;;;17.50;57.20;;;;;;5039954;28;20202;-88
2023/06/03 07:03:19;;;;;;;9.67;6.13;;;17.40;57.00;;;;;;5021786;28;20178;-88
2023/06/03 07:05:46;;;;;;;6.90;6.20;;;17.50;56.90;;;;;;5025228;28;20616;-88
2023/06/03 07:08:12;;;;;;;7.80;6.33;;;17.70;56.80;;;;;;5037998;28;20189;-88
2023/06/03 07:10:38;;;;;;;6.70;6.00;;;17.80;56.60;;;;;;5021508;28;20225;-87
2023/06/03 07:13:06;;;;;;;12.20;6.30;;;17.90;55.90;;;;;;5040150;28;20183;-88
2023/06/03 07:15:32;;;;;;;8.07;6.03;;;17.90;55.70;;;;;;5040365;28;20181;-89
2023/06/03 07:17:58;;;;;;;7.97;6.30;;;17.90;56.20;;;;;;5040737;28;20209;-88
2023/06/03 07:20:34;;;;;;;7.57;6.43;;;18.00;56.30;;;;;;5022335;28;20503;-88
2023/06/03 07:23:01;;;;;;;10.80;6.07;;;18.20;55.40;;;;;;5038978;28;20183;-90
2023/06/03 07:25:44;;;;;;;7.37;6.30;;;18.30;54.90;;;;;;5038515;28;20178;-90
2023/06/03 07:28:11;;;;;;;7.97;6.32;;;18.40;54.70;;;;;;5038454;28;20172;-92
2023/06/03 07:30:38;;;;;;;8.40;6.55;;;18.50;54.40;;;;;;5040650;28;20669;-88
2023/06/03 07:33:05;;;;;;;11.07;7.07;;;18.50;54.00;;;;;;5039808;28;20234;-91
2023/06/03 07:35:34;;;;;;;7.28;6.35;;;18.60;53.70;;;;;;5038203;28;20364;-88
2023/06/03 07:37:59;;;;;;;8.60;6.05;;;18.80;53.00;;;;;;5018440;28;20212;-89
2023/06/03 07:40:40;;;;;;;9.35;6.30;;;18.90;53.10;;;;;;5038315;28;20830;-92
2023/06/03 07:43:07;;;;;;;8.77;6.57;;;19.10;52.90;;;;;;5038892;28;20186;-91
2023/06/03 07:45:34;;;;;;;9.35;6.38;;;19.10;52.70;;;;;;5038580;28;20206;-87
2023/06/03 07:48:02;;;;;;;7.50;6.20;;;19.00;52.80;;;;;;5020655;28;20212;-89
2023/06/03 07:50:28;;;;;;;8.82;6.32;;;19.10;52.70;;;;;;5020557;28;20183;-89
2023/06/03 07:53:03;;;;;;;9.10;6.65;;;19.10;52.70;;;;;;5038834;28;20183;-87
2023/06/03 07:55:43;;;;;;;11.32;7.32;;;19.30;52.30;;;;;;5021136;28;20232;-90
2023/06/03 07:58:10;;;;;;;7.90;6.53;;;19.20;52.70;;;;;;5038591;28;20164;-87
2023/06/03 08:00:42;;;;;;;6.63;5.93;;;19.10;52.70;;;;;;5038051;28;20182;-87
2023/06/03 08:03:07;;;;;;;8.18;6.57;;;19.10;52.60;;;;;;5039290;28;20178;-89
2023/06/03 08:05:36;;;;;;;6.43;5.82;;;19.10;52.30;;;;;;5037390;28;20186;-90
2023/06/03 08:08:09;;;;;;;8.43;6.30;;;19.30;52.60;;;;;;5038558;28;20214;-90
2023/06/03 08:10:35;;;;;;;9.35;6.25;;;19.50;51.70;;;;;;5036834;28;20283;-89
2023/06/03 08:13:02;;;;;;;7.20;6.25;;;19.60;51.60;;;;;;5040062;28;20189;-87
2023/06/03 08:15:32;;;;;;;8.27;6.68;;;19.80;51.20;;;;;;5037273;28;20177;-88
2023/06/03 08:17:59;;;;;;;7.75;6.70;;;20.00;50.70;;;;;;5036498;28;20180;-87
2023/06/03 08:20:26;;;;;;;9.73;6.13;;;20.10;50.00;;;;;;5035680;28;20192;-93
2023/06/03 08:22:53;;;;;;;8.98;6.57;;;20.20;50.00;;;;;;5037179;28;20181;-92
2023/06/03 08:25:19;;;;;;;6.93;6.22;;;20.30;49.50;;;;;;5036311;28;20298;-89
2023/06/03 08:27:45;;;;;;;9.90;7.18;;;20.40;49.50;;;;;;5018115;28;20209;-88
2023/06/03 08:30:15;;;;;;;7.28;6.68;;;20.60;48.80;;;;;;5018764;28;20185;-88
2023/06/03 08:32:41;;;;;;;9.55;7.18;;;20.60;48.70;;;;;;5035686;28;20176;-88
2023/06/03 08:35:12;;;;;;;9.10;7.18;;;20.80;48.10;;;;;;5035349;28;20603;-89
2023/06/03 08:37:38;;;;;;;7.75;7.05;;;21.00;47.80;;;;;;5036668;28;20206;-89
2023/06/03 08:40:09;;;;;;;7.35;6.68;;;21.00;47.20;;;;;;5034327;28;20588;-91
2023/06/03 08:42:45;;;;;;;7.97;7.07;;;21.20;47.30;;;;;;5034521;28;20179;-93
2023/06/03 08:45:16;;;;;;;7.20;6.50;;;21.20;46.60;;;;;;5033748;28;20194;-89
2023/06/03 08:47:47;;;;;;;7.80;7.00;;;21.40;47.00;;;;;;5036177;28;20247;-91
2023/06/03 08:50:17;;;;;;;10.05;7.75;;;21.50;46.40;;;;;;5037567;28;20248;-88
2023/06/03 08:52:46;;;;;;;9.48;7.10;;;21.40;46.50;;;;;;5036771;28;20187;-87
2023/06/03 08:55:15;;;;;;;12.63;7.82;;;21.50;46.60;;;;;;5035953;28;20180;-86
2023/06/03 08:58:02;;;;;;;10.52;7.40;;;21.50;46.40;;;;;;5039452;28;20209;-89
2023/06/03 09:00:28;;;;;;;9.27;7.18;;;21.70;46.20;;;;;;5038432;28;20171;-90
2023/06/03 09:02:55;;;;;;;10.07;7.22;;;21.90;45.30;;;;;;5038789;28;20246;-85
2023/06/03 09:05:21;;;;;;;10.50;7.95;;;21.90;45.10;;;;;;5039834;28;20419;-81
2023/06/03 09:07:47;;;;;;;8.75;7.55;;;21.90;44.70;;;;;;5022192;28;20207;-88
2023/06/03 09:10:20;;;;;;;9.73;7.93;;;21.90;45.20;;;;;;5038228;28;20186;-90
2023/06/03 09:12:47;;;;;;;8.45;7.63;;;22.00;45.00;;;;;;5021086;28;20188;-90
2023/06/03 09:15:14;;;;;;;8.07;7.18;;;22.00;45.10;;;;;;5036261;28;20268;-89
2023/06/03 09:17:44;;;;;;;8.40;7.55;;;22.20;45.30;;;;;;5037653;28;20219;-93
2023/06/03 09:20:10;;;;;;;10.07;9.13;;;22.40;44.70;;;;;;5041244;28;20181;-91
2023/06/03 09:22:38;;;;;;;9.32;8.50;;;22.80;43.10;;;;;;5042141;28;20200;-91
2023/06/03 09:25:05;;;;;;;9.25;8.43;;;23.00;42.30;;;;;;5043658;28;20196;-92
2023/06/03 09:27:31;;;;;;;12.43;9.00;;;22.70;43.00;;;;;;5042593;28;20212;-88
2023/06/03 09:29:58;;;;;;;9.25;8.45;;;22.90;43.10;;;;;;5041653;28;20211;-89
2023/06/03 09:32:23;;;;;;;8.90;8.10;;;23.00;42.60;;;;;;5023300;28;20181;-89
2023/06/03 09:34:50;;;;;;;9.15;8.27;;;23.10;42.60;;;;;;5043225;28;20268;-87
2023/06/03 09:37:16;;;;;;;10.10;8.95;;;23.00;42.30;;;;;;5041180;28;20234;-90
2023/06/03 09:39:42;;;;;;;9.23;8.43;;;23.00;42.50;;;;;;5040813;28;20192;-90
2023/06/03 09:42:08;;;;;;;22.25;19.92;;;23.20;42.10;;;;;;5040085;28;20193;-90
2023/06/03 09:44:42;;;;;;;10.32;9.27;;;23.20;42.30;;;;;;5040015;28;20710;-90
2023/06/03 09:47:12;;;;;;;9.13;8.35;;;23.20;42.30;;;;;;5041097;28;20200;-91
2023/06/03 09:49:38;;;;;;;9.88;8.90;;;23.20;43.40;;;;;;5041270;28;20256;-88
2023/06/03 09:52:09;;;;;;;10.10;9.10;;;23.40;42.30;;;;;;5040145;28;20180;-88
2023/06/03 09:54:35;;;;;;;9.85;9.00;;;23.50;43.00;;;;;;5041492;28;20265;-92
2023/06/03 09:57:13;;;;;;;9.75;8.85;;;23.60;41.90;;;;;;5041228;28;20246;-91
2023/06/03 09:59:44;;;;;;;11.02;8.63;;;23.70;41.60;;;;;;5041542;28;20181;-91
2023/06/03 10:02:14;;;;;;;10.80;8.75;;;23.60;42.60;;;;;;5041680;28;20173;-88
2023/06/03 10:04:41;;;;;;;10.98;8.95;;;23.70;41.20;;;;;;5042013;28;20176;-93
2023/06/03 10:07:17;;;;;;;9.48;8.52;;;23.90;41.50;;;;;;5042113;28;20381;-90
2023/06/03 10:09:45;;;;;;;10.25;9.20;;;24.30;40.30;;;;;;5041493;28;20192;-91
2023/06/03 10:12:12;;;;;;;9.70;8.88;;;24.30;40.00;;;;;;5038143;28;20232;-91
2023/06/03 10:14:48;;;;;;;10.23;9.48;;;24.20;41.00;;;;;;5037085;28;20435;-88
2023/06/03 10:17:15;;;;;;;9.85;9.07;;;24.50;39.60;;;;;;5020768;28;20203;-90
2023/06/03 10:19:42;;;;;;;10.90;9.90;;;24.50;39.80;;;;;;5039069;28;20284;-90
2023/06/03 10:22:10;;;;;;;10.70;9.77;;;24.80;38.80;;;;;;5040995;28;20181;-87
2023/06/03 10:24:43;;;;;;;10.52;9.73;;;25.20;37.80;;;;;;5039103;28;20425;-88
2023/06/03 10:27:10;;;;;;;12.27;10.95;;;25.40;37.80;;;;;;5039005;28;20215;-89
2023/06/03 10:29:36;;;;;;;11.15;10.23;;;25.30;38.40;;;;;;5039116;28;20405;-90
2023/06/03 10:32:04;;;;;;;11.73;10.80;;;25.20;38.10;;;;;;5038110;28;20384;-90
2023/06/03 10:34:31;;;;;;;11.82;10.80;;;25.10;38.90;;;;;;5040149;28;20189;-91
2023/06/03 10:37:00;;;;;;;12.50;11.65;;;25.40;38.10;;;;;;5022727;28;20205;-90
2023/06/03 10:39:28;;;;;;;11.48;10.60;;;25.30;37.80;;;;;;5040727;28;20177;-90
2023/06/03 10:41:57;;;;;;;11.63;10.52;;;25.50;37.70;;;;;;5040275;28;20682;-92
2023/06/03 10:44:23;;;;;;;12.00;11.07;;;25.70;36.90;;;;;;5019412;28;20745;-93
2023/06/03 10:47:07;;;;;;;12.82;11.90;;;26.00;37.00;;;;;;5020400;28;20259;-92
2023/06/03 10:49:44;;;;;;;12.95;11.95;;;26.10;36.70;;;;;;5024271;28;20616;-89
2023/06/03 10:52:31;;;;;;;15.52;14.27;;;25.90;36.80;;;;;;5022448;28;20181;-90
2023/06/03 10:55:03;;;;;;;13.30;12.38;;;26.10;36.40;;;;;;5022374;28;20188;-89
2023/06/03 10:57:37;;;;;;;12.52;11.68;;;25.70;37.10;;;;;;5033209;28;20205;-90
2023/06/03 11:00:06;;;;;;;11.93;10.82;;;25.50;37.70;;;;;;5042795;28;20196;-88
2023/06/03 11:03:06;;;;;;;12.43;11.20;;;25.60;37.90;;;;;;5043404;28;20270;-91
2023/06/03 11:05:32;;;;;;;13.85;12.68;;;26.20;37.60;;;;;;5045776;28;20181;-91
2023/06/03 11:07:58;;;;;;;12.55;11.48;;;26.20;36.20;;;;;;5045541;28;20670;-93
2023/06/03 11:10:36;;;;;;;13.52;12.23;;;26.20;36.90;;;;;;5031030;28;20188;-90
2023/06/03 11:13:06;;;;;;;13.50;12.48;;;26.50;36.80;;;;;;5021242;28;20204;-90
2023/06/03 11:16:10;;;;;;;12.60;11.80;;;26.30;36.60;;;;;;5020604;28;20217;-91
2023/06/03 11:18:36;;;;;;;14.43;13.48;;;26.80;36.10;;;;;;4977648;28;20182;-89
2023/06/03 11:21:01;;;;;;;15.25;14.05;;;27.00;35.90;;;;;;4980098;28;20183;-92
2023/06/03 11:23:41;;;;;;;15.93;15.05;;;27.40;35.70;;;;;;5019722;28;20628;-90
2023/06/03 11:26:35;;;;;;;17.48;16.58;;;27.60;34.80;;;;;;5043945;28;20212;-90
2023/06/03 11:29:06;;;;;;;18.77;17.63;;;27.60;34.30;;;;;;5052654;28;20200;-91
2023/06/03 11:31:33;;;;;;;17.60;16.65;;;27.40;35.00;;;;;;5033189;28;20196;-91
2023/06/03 11:34:18;;;;;;;18.58;17.58;;;27.20;35.60;;;;;;5053277;28;20189;-91
2023/06/03 11:36:54;;;;;;;18.42;17.40;;;27.60;34.50;;;;;;5025961;28;20453;-91
2023/06/03 11:39:20;;;;;;;20.48;19.08;;;27.90;33.90;;;;;;5040171;28;20172;-92
2023/06/03 11:42:09;;;;;;;20.63;19.52;;;27.90;33.50;;;;;;5040027;28;20650;-93
2023/06/03 11:44:37;;;;;;;20.92;19.58;;;27.90;33.90;;;;;;5043155;28;20559;-91
2023/06/03 11:47:04;;;;;;;20.88;19.48;;;28.00;34.20;;;;;;5026117;28;20223;-93
2023/06/03 11:49:32;;;;;;;20.63;19.48;;;27.90;34.50;;;;;;5043363;28;20181;-92
2023/06/03 11:51:59;;;;;;;18.65;17.58;;;27.70;35.00;;;;;;5041423;28;20701;-92
2023/06/03 11:54:25;;;;;;;19.27;18.05;;;27.40;35.20;;;;;;5042668;28;20276;-92
2023/06/03 11:56:52;;;;;;;19.60;18.42;;;27.90;34.20;;;;;;5042542;28;20223;-93
2023/06/03 11:59:25;;;;;;;18.85;17.75;;;28.30;33.40;;;;;;5039876;28;20177;-91
2023/06/03 12:01:58;;;;;;;19.17;17.88;;;28.50;34.00;;;;;;5038585;28;20223;-91
2023/06/03 12:04:25;;;;;;;19.15;18.08;;;29.00;33.50;;;;;;5038945;28;20173;-92
2023/06/03 12:06:51;;;;;;;18.80;17.77;;;29.40;31.50;;;;;;5038962;28;20276;-88
2023/06/03 12:09:27;;;;;;;21.13;19.95;;;29.50;31.80;;;;;;5038705;28;20240;-90
2023/06/03 12:11:54;;;;;;;21.17;20.13;;;29.70;31.40;;;;;;5035430;28;20176;-88
2023/06/03 12:14:27;;;;;;;21.73;20.50;;;29.60;31.40;;;;;;5038908;28;20177;-90
2023/06/03 12:16:54;;;;;;;21.13;19.92;;;29.90;30.70;;;;;;5035684;28;20220;-91
2023/06/03 12:19:20;;;;;;;20.13;18.80;;;30.30;30.40;;;;;;5037143;28;20185;-90
2023/06/03 12:22:00;;;;;;;19.10;18.13;;;30.20;30.80;;;;;;5032576;28;20227;-91
2023/06/03 12:24:28;;;;;;;20.17;18.88;;;29.90;31.00;;;;;;5032913;28;20214;-89
2023/06/03 12:26:57;;;;;;;20.48;19.27;;;30.10;30.90;;;;;;5032609;28;20695;-89
2023/06/03 12:29:24;;;;;;;20.20;19.00;;;30.10;30.50;;;;;;5036249;28;20188;-89
2023/06/03 12:32:01;;;;;;;19.80;18.70;;;30.30;30.60;;;;;;5037382;28;20236;-92
2023/06/03 12:34:31;;;;;;;19.52;18.23;;;30.50;30.30;;;;;;5021652;28;20195;-88
2023/06/03 12:36:57;;;;;;;19.58;18.45;;;30.40;30.70;;;;;;5037822;28;20416;-91
2023/06/03 12:39:45;;;;;;;19.48;18.40;;;30.40;30.30;;;;;;5037042;28;20710;-93
2023/06/03 12:42:11;;;;;;;20.35;19.15;;;30.60;29.90;;;;;;5034596;28;20180;-89
2023/06/03 12:44:55;;;;;;;19.88;18.85;;;30.40;30.70;;;;;;5035563;28;20181;-87
2023/06/03 12:47:21;;;;;;;21.02;19.90;;;30.70;29.70;;;;;;5030142;28;20212;-88
2023/06/03 12:50:08;;;;;;;21.17;20.17;;;30.90;29.20;;;;;;5017735;28;20571;-87
2023/06/03 12:52:36;;;;;;;21.13;20.02;;;30.80;29.10;;;;;;5029161;28;20200;-87